Time;durP1;ratioP1;P1;durP2;ratioP2;P2;SDS_P1;SDS_P2;PMS_P1;PMS_P2;Temp;Humidity;BMP_temperature;BMP_pressure;BME280_temperature;BME280_humidity;BME280_pressure;Samples;Min_cycle;Max_cycle;Signal;HPM_P1;HPM_P2
2022/09/01 00:07:33;;;;;;;0.60;0.30;;;21.40;54.40;;;;;;20525883;28;20429;-79
2022/09/01 00:17:33;;;;;;;0.43;0.30;;;21.40;54.40;;;;;;20557763;28;20027;-79
2022/09/01 00:27:35;;;;;;;0.30;0.10;;;21.40;54.50;;;;;;20554812;28;20142;-78
2022/09/01 00:37:36;;;;;;;0.30;0.20;;;21.40;54.60;;;;;;20583595;28;20132;-78
2022/09/01 00:47:37;;;;;;;0.60;0.20;;;21.40;54.70;;;;;;20529200;28;20081;-80
2022/09/01 00:57:37;;;;;;;0.85;0.32;;;21.40;54.70;;;;;;20547128;28;20518;-79
2022/09/01 01:07:41;;;;;;;0.30;0.30;;;21.40;54.70;;;;;;20522682;28;20032;-78
2022/09/01 01:17:41;;;;;;;0.50;0.30;;;21.40;54.60;;;;;;20509890;28;20059;-80
2022/09/01 01:27:42;;;;;;;0.25;0.22;;;21.40;54.60;;;;;;20818841;22;20138;-79
2022/09/01 01:37:45;;;;;;;0.60;0.45;;;21.40;54.60;;;;;;20390750;29;20031;-79
2022/09/01 01:47:52;;;;;;;0.60;0.40;;;21.30;54.50;;;;;;20379663;29;20459;-79
2022/09/01 01:57:55;;;;;;;0.30;0.13;;;21.40;54.60;;;;;;20382417;29;20035;-79
2022/09/01 02:07:58;;;;;;;0.22;0.13;;;21.30;54.50;;;;;;20396990;29;20043;-79
2022/09/01 02:18:00;;;;;;;2.07;0.30;;;21.30;54.50;;;;;;20395571;29;20039;-79
2022/09/01 02:28:02;;;;;;;0.57;0.25;;;21.30;54.60;;;;;;20390073;29;20071;-79
2022/09/01 02:38:04;;;;;;;0.57;0.40;;;21.30;54.50;;;;;;20387066;29;20057;-79
2022/09/01 02:48:08;;;;;;;0.35;0.28;;;21.30;54.50;;;;;;20405222;29;20383;-78
2022/09/01 02:58:15;;;;;;;0.67;0.23;;;21.20;54.40;;;;;;20399211;29;20035;-79
2022/09/01 03:08:15;;;;;;;0.55;0.30;;;21.20;54.30;;;;;;20371314;29;20039;-79
2022/09/01 03:18:17;;;;;;;0.30;0.20;;;21.20;54.40;;;;;;20386277;29;20119;-78
2022/09/01 03:28:18;;;;;;;0.47;0.25;;;21.20;54.30;;;;;;20377894;29;20036;-79
2022/09/01 03:38:23;;;;;;;0.50;0.30;;;21.20;54.40;;;;;;20369531;29;20363;-79
2022/09/01 03:48:27;;;;;;;1.02;0.32;;;21.20;54.40;;;;;;20398469;29;20051;-76
2022/09/01 03:58:28;;;;;;;0.52;0.35;;;21.20;54.40;;;;;;20426471;29;20469;-80
2022/09/01 04:08:32;;;;;;;1.00;0.40;;;21.20;54.40;;;;;;20401801;29;20134;-80
2022/09/01 04:18:33;;;;;;;0.65;0.20;;;21.20;54.40;;;;;;20411231;29;20029;-79
2022/09/01 04:28:38;;;;;;;0.80;0.20;;;21.10;54.20;;;;;;20413296;29;20039;-79
2022/09/01 04:38:39;;;;;;;0.75;0.30;;;21.10;54.20;;;;;;20409591;29;20074;-72
2022/09/01 04:48:44;;;;;;;0.80;0.47;;;21.10;54.30;;;;;;20411546;29;20162;-70
2022/09/01 04:58:45;;;;;;;;;;;21.10;54.20;;;;;;20435091;29;20058;-75
2022/09/01 05:08:46;;;;;;;0.90;0.40;;;21.00;54.10;;;;;;20402742;29;19919;-77
2022/09/01 05:19:00;;;;;;;0.57;0.40;;;21.00;54.20;;;;;;20367633;29;20050;-77
2022/09/01 05:29:09;;;;;;;1.13;0.40;;;21.00;54.10;;;;;;20408242;29;20043;-74
2022/09/01 05:39:11;;;;;;;0.30;0.30;;;21.00;54.10;;;;;;20398816;29;20087;-78
2022/09/01 05:49:14;;;;;;;1.58;0.52;;;21.00;54.00;;;;;;20433755;29;20376;-76
2022/09/01 05:59:15;;;;;;;1.00;0.35;;;21.00;54.00;;;;;;20387304;29;20046;-78
2022/09/01 06:09:22;;;;;;;2.60;0.40;;;20.90;54.00;;;;;;20375742;29;20573;-77
2022/09/01 06:19:23;;;;;;;1.15;0.30;;;20.90;54.00;;;;;;20389431;29;20322;-75
2022/09/01 06:29:24;;;;;;;1.02;0.35;;;20.90;54.00;;;;;;20415685;29;20130;-78
2022/09/01 06:39:25;;;;;;;1.55;0.30;;;20.90;54.00;;;;;;20380662;29;20035;-77
2022/09/01 06:49:33;;;;;;;0.20;0.20;;;20.90;54.10;;;;;;20384955;29;20035;-74
2022/09/01 06:59:34;;;;;;;1.42;0.45;;;20.90;54.10;;;;;;20381238;29;20028;-75
2022/09/01 07:09:36;;;;;;;0.30;0.20;;;20.90;54.10;;;;;;20364966;29;20119;-74
2022/09/01 07:19:50;;;;;;;0.30;0.30;;;20.90;54.10;;;;;;20382322;29;20610;-73
2022/09/01 07:29:51;;;;;;;0.38;0.20;;;20.90;54.10;;;;;;20383815;29;20134;-73
2022/09/01 07:39:52;;;;;;;2.85;0.30;;;20.90;54.10;;;;;;20382541;29;20391;-73
2022/09/01 07:50:14;;;;;;;0.57;0.28;;;21.00;54.20;;;;;;20374728;29;20039;-74
2022/09/01 08:00:16;;;;;;;0.85;0.40;;;20.90;54.20;;;;;;20369492;29;20038;-76
2022/09/01 08:10:23;;;;;;;0.47;0.17;;;20.90;54.20;;;;;;20360519;29;20167;-74
2022/09/01 08:20:24;;;;;;;0.43;0.20;;;20.90;54.20;;;;;;20378808;29;20028;-74
2022/09/01 08:30:43;;;;;;;0.40;0.20;;;21.00;54.30;;;;;;20404421;29;20039;-75
2022/09/01 08:40:53;;;;;;;0.65;0.30;;;20.90;54.20;;;;;;20384109;29;20496;-75
2022/09/01 08:51:17;;;;;;;0.38;0.20;;;21.00;54.30;;;;;;20387619;29;20046;-75
2022/09/01 09:01:34;;;;;;;;;;;21.00;54.20;;;;;;20436865;29;20051;-75
2022/09/01 09:11:57;;;;;;;0.45;0.20;;;21.00;54.20;;;;;;20427830;29;19915;-75
2022/09/01 09:21:59;;;;;;;0.35;0.35;;;21.00;54.10;;;;;;20411685;29;20040;-75
2022/09/01 09:32:04;;;;;;;0.43;0.20;;;21.00;54.10;;;;;;20410252;29;20435;-74
2022/09/01 09:42:08;;;;;;;0.60;0.25;;;21.10;54.10;;;;;;20383262;29;20031;-75
2022/09/01 09:52:08;;;;;;;0.17;0.17;;;21.00;54.10;;;;;;20421066;29;20036;-76
2022/09/01 10:02:27;;;;;;;0.65;0.20;;;21.00;54.10;;;;;;20411681;29;20090;-76
2022/09/01 10:12:28;;;;;;;0.95;0.20;;;21.10;54.10;;;;;;20397038;29;20402;-77
2022/09/01 10:22:28;;;;;;;0.32;0.25;;;21.00;54.00;;;;;;20407748;29;20183;-77
2022/09/01 10:32:37;;;;;;;0.27;0.10;;;21.10;53.90;;;;;;20406938;29;20108;-76
2022/09/01 10:42:41;;;;;;;0.30;0.20;;;21.10;53.70;;;;;;20383785;29;20326;-75
2022/09/01 10:52:41;;;;;;;0.73;0.30;;;21.00;53.60;;;;;;20402889;29;20035;-74
2022/09/01 11:02:42;;;;;;;0.30;0.30;;;21.00;53.60;;;;;;20400972;29;20379;-77
2022/09/01 11:12:45;;;;;;;0.50;0.13;;;21.10;53.70;;;;;;20403780;29;20031;-78
2022/09/01 11:22:58;;;;;;;0.70;0.20;;;21.10;53.70;;;;;;20401803;29;20062;-79
2022/09/01 11:33:14;;;;;;;0.20;0.10;;;21.10;53.70;;;;;;20376736;29;20040;-78
2022/09/01 11:43:15;;;;;;;0.22;0.10;;;21.10;53.70;;;;;;20386640;29;20031;-77
2022/09/01 11:53:20;;;;;;;0.73;0.20;;;21.00;53.60;;;;;;20408820;29;20039;-79
2022/09/01 12:03:28;;;;;;;0.63;0.10;;;21.10;53.60;;;;;;20417906;29;20048;-78
2022/09/01 12:13:29;;;;;;;0.35;0.15;;;21.00;53.50;;;;;;20392662;29;20176;-78
2022/09/01 12:23:33;;;;;;;0.57;0.17;;;21.10;53.40;;;;;;20412307;29;20112;-72
2022/09/01 12:33:33;;;;;;;0.30;0.10;;;21.10;53.10;;;;;;20414924;29;20032;-74
2022/09/01 12:43:35;;;;;;;0.10;0.10;;;21.10;53.80;;;;;;20391598;29;20036;-75
2022/09/01 12:53:35;;;;;;;0.82;0.28;;;21.10;53.10;;;;;;20392162;29;20048;-75
2022/09/01 13:03:36;;;;;;;0.10;0.10;;;21.10;53.10;;;;;;20397801;29;20131;-75
2022/09/01 13:13:37;;;;;;;0.43;0.10;;;21.10;53.10;;;;;;20398132;29;20441;-75
2022/09/01 13:23:37;;;;;;;0.00;0.00;;;21.10;53.10;;;;;;20418294;29;20587;-75
2022/09/01 13:33:38;;;;;;;0.80;0.20;;;21.10;53.00;;;;;;20422939;29;20060;-79
2022/09/01 13:43:38;;;;;;;0.10;0.10;;;21.10;53.00;;;;;;20456959;29;20123;-80
2022/09/01 13:53:39;;;;;;;0.22;0.20;;;21.20;52.80;;;;;;20400183;29;20039;-80
2022/09/01 14:03:40;;;;;;;0.00;0.00;;;21.20;52.40;;;;;;20387495;29;20035;-79
2022/09/01 14:13:41;;;;;;;0.20;0.20;;;21.30;52.40;;;;;;20398457;29;20439;-80
2022/09/01 14:23:42;;;;;;;0.10;0.10;;;21.30;52.60;;;;;;20418764;29;20138;-79
2022/09/01 14:33:42;;;;;;;0.20;0.10;;;21.20;52.70;;;;;;20390025;29;20039;-80
2022/09/01 14:43:43;;;;;;;0.63;0.10;;;21.30;52.70;;;;;;20402450;29;20372;-77
2022/09/01 14:53:43;;;;;;;0.50;0.20;;;21.40;52.30;;;;;;20400918;29;20063;-79
2022/09/01 15:03:44;;;;;;;4.32;0.40;;;21.40;51.80;;;;;;20367708;29;20067;-79
2022/09/01 15:13:45;;;;;;;2.58;0.50;;;21.40;51.10;;;;;;20418962;29;20102;-81
2022/09/01 15:23:47;;;;;;;4.72;0.30;;;21.40;50.00;;;;;;20430415;29;20054;-79
2022/09/01 15:33:47;;;;;;;0.38;0.22;;;21.40;50.00;;;;;;20384221;29;20039;-80
2022/09/01 15:43:48;;;;;;;0.57;0.32;;;21.30;50.20;;;;;;20419119;29;20123;-79
2022/09/01 15:53:53;;;;;;;1.83;0.37;;;21.30;50.10;;;;;;20399339;29;20147;-79
2022/09/01 16:03:54;;;;;;;3.27;0.60;;;21.30;50.20;;;;;;20401847;29;20394;-82
2022/09/01 16:13:55;;;;;;;0.50;0.20;;;21.30;50.40;;;;;;20422244;29;20401;-76
2022/09/01 16:23:55;;;;;;;0.63;0.20;;;21.30;50.60;;;;;;20396107;29;20059;-76
2022/09/01 16:34:00;;;;;;;0.93;0.50;;;21.40;50.60;;;;;;20391155;29;20359;-75
2022/09/01 16:44:10;;;;;;;;;;;21.50;50.80;;;;;;20394522;29;20170;-77
2022/09/01 16:54:36;;;;;;;2.10;0.47;;;21.60;51.20;;;;;;20425622;28;19915;-77
2022/09/01 17:04:39;;;;;;;;;;;21.70;51.10;;;;;;20408099;29;20478;-78
2022/09/01 17:15:02;;;;;;;0.75;0.30;;;21.70;51.20;;;;;;20402611;29;19919;-77
2022/09/01 17:25:08;;;;;;;0.80;0.30;;;21.60;51.30;;;;;;20424984;29;20067;-78
2022/09/01 17:35:24;;;;;;;1.42;0.30;;;21.60;51.50;;;;;;20434362;29;20054;-78
2022/09/01 17:45:50;;;;;;;1.42;0.38;;;21.60;51.60;;;;;;20386795;29;20043;-78
2022/09/01 17:55:59;;;;;;;1.50;0.40;;;21.50;51.80;;;;;;20412756;29;20047;-79
2022/09/01 18:06:51;;;;;;;0.40;0.30;;;21.50;51.90;;;;;;20392850;29;20032;-78
2022/09/01 18:17:04;;;;;;;0.65;0.30;;;21.40;52.00;;;;;;20387769;29;20039;-79
2022/09/01 18:27:06;;;;;;;0.20;0.20;;;21.40;52.10;;;;;;20402457;29;20142;-79
2022/09/01 18:37:26;;;;;;;1.40;0.25;;;21.40;52.00;;;;;;20393327;29;20498;-80
2022/09/01 18:47:50;;;;;;;0.28;0.22;;;21.40;52.60;;;;;;20391627;29;20042;-79
2022/09/01 18:57:53;;;;;;;0.77;0.30;;;21.30;52.00;;;;;;20388452;29;20043;-81
2022/09/01 19:07:57;;;;;;;0.30;0.20;;;21.30;52.00;;;;;;20388500;29;20402;-78
2022/09/01 19:18:11;;;;;;;0.30;0.20;;;21.30;51.90;;;;;;20396839;29;20044;-79
2022/09/01 19:28:17;;;;;;;1.27;0.20;;;21.30;51.80;;;;;;20419711;29;20394;-80
2022/09/01 19:38:22;;;;;;;0.63;0.38;;;21.30;51.70;;;;;;20396450;29;20175;-79
2022/09/01 19:48:44;;;;;;;0.38;0.20;;;21.30;51.70;;;;;;20404260;29;20032;-78
2022/09/01 19:58:50;;;;;;;0.70;0.32;;;21.20;51.60;;;;;;20404012;29;20040;-79
2022/09/01 20:09:00;;;;;;;0.70;0.30;;;21.20;51.50;;;;;;20388955;29;20083;-78
2022/09/01 20:19:27;;;;;;;0.68;0.20;;;21.20;51.50;;;;;;20426099;29;20035;-80
2022/09/01 20:29:43;;;;;;;0.50;0.20;;;21.20;51.50;;;;;;20401268;29;20036;-78
2022/09/01 20:40:07;;;;;;;0.85;0.30;;;21.20;51.50;;;;;;20402086;29;20060;-78
2022/09/01 20:50:11;;;;;;;1.00;0.20;;;21.20;51.50;;;;;;20413977;29;20130;-77
2022/09/01 21:00:24;;;;;;;0.80;0.30;;;21.20;51.50;;;;;;20395133;29;20489;-80
2022/09/01 21:10:36;;;;;;;0.20;0.20;;;21.20;51.50;;;;;;20436351;29;20471;-77
2022/09/01 21:20:59;;;;;;;1.13;0.10;;;21.10;51.50;;;;;;20399236;29;20043;-78
2022/09/01 21:31:00;;;;;;;0.63;0.25;;;21.10;51.50;;;;;;20449988;29;20067;-78
2022/09/01 21:41:01;;;;;;;0.10;0.10;;;21.10;51.40;;;;;;20441035;29;20050;-80
2022/09/01 21:51:05;;;;;;;0.45;0.22;;;21.10;51.50;;;;;;20432775;29;20035;-78
2022/09/01 22:01:06;;;;;;;0.50;0.25;;;21.10;51.50;;;;;;20397757;29;20134;-80
2022/09/01 22:11:08;;;;;;;0.20;0.20;;;21.10;51.60;;;;;;20428966;29;20095;-79
2022/09/01 22:21:09;;;;;;;3.05;0.30;;;21.10;51.60;;;;;;20435588;29;20042;-78
2022/09/01 22:31:13;;;;;;;0.88;0.63;;;21.10;51.60;;;;;;20427752;29;20039;-78
2022/09/01 22:41:17;;;;;;;0.57;0.30;;;21.10;51.60;;;;;;20437793;29;20036;-78
2022/09/01 22:51:18;;;;;;;0.38;0.30;;;21.10;51.60;;;;;;20420233;29;20064;-78
2022/09/01 23:01:19;;;;;;;0.32;0.20;;;21.10;51.70;;;;;;20412319;29;20390;-78
2022/09/01 23:11:20;;;;;;;0.25;0.20;;;21.00;51.60;;;;;;20402724;29;20042;-78
2022/09/01 23:21:27;;;;;;;1.25;0.50;;;21.00;51.60;;;;;;20396683;29;20387;-78
2022/09/01 23:31:29;;;;;;;0.75;0.38;;;21.00;51.60;;;;;;20435477;29;20118;-78
2022/09/01 23:41:31;;;;;;;1.58;0.25;;;21.00;51.60;;;;;;20442213;29;20036;-79
2022/09/01 23:51:32;;;;;;;0.25;0.17;;;21.00;51.70;;;;;;20422537;29;20521;-77
